Details From SBKP - Sao Paulo Viracopos
To SBEG - Eduardo Gomes
Flight Number -
Tags decoded
Created
Modified
Stats Distance 1,415 nm / 2,621 km
Max Altitude 0 ft / 0 m
Waypoints 4
Social Downloads 8
Likes 0
Share

Download

Looking for another format? Having issues loading an existing format? Contact us
Advertisement - Login to hide

Notes

Requested: SBKP RCL UM417 SAMAR POPTI UM417 KOKMU SBEG Unmatched points: UM417 POPTI UM417 KOKMU

Route

SBKP RCL SAMAR SBEG

ID Type Via Altitude (ft/m) Position (lat/lon) Dist (leg/tot) Name
O SBKP APT - 0 / 0 -23.00738 / -47.13452 - / 0 nm Sao Paulo Viracopos
RCL NDB - 0 / 0 -22.43017 / -47.56250 41 / 41 nm RIO CLARO NDB
SAMAR FIX - 0 / 0 -14.71300 / -53.11942 560 / 602 nm
O SBEG APT - 0 / 0 -3.03861 / -60.04972 812 / 1415 nm Eduardo Gomes

Altitude Profile

Advertisement - Login to hide

Weather


0- 5 10 15 20 25 30 35+ Temperature / °C

Clouds and Precipitation
Forecast for 2022-05-27 06:00 UTC. Updated 3 hours ago

Ground ~20,000 ft ~40,000 ft Winds

SBKP

Details ICAO SBKP (VCP)
Name Campinas Viracopos Intl
Region Brazil
Timezone America/Sao_Paulo (UTC-3.0)
Stats Elevation 2,169 ft / 661 m (AMSL)
Location -23.007400° -47.134500°
Runways 1
Magnetic Variation 21.757° W

METAR

SBKP 270600Z 11008KT CAVOK 15/11 Q1022

Decode

TAF

TAF SBKP 270300Z 2706/2806 11007KT CAVOK TN13/2709Z TX27/2718Z BECMG 2711/2713 05005KT BECMG 2714/2716 33008KT SCT035 TEMPO 2716/2721 33010G23KT BECMG 2721/2723 11005KT CAVOK RMK PGL

Decode

Departure Runways

ID Width Length Bearing (true/mag) Surface Threshold Overrun Markings Lighting
15 148 ft / 45 m 10,666 ft / 3,251 m 127.87° / 149.63° ASPHALT 0 ft / 0 m 171 ft / 52 m PREC-APP CENTERLINE EDGE THRESHOLD MALSR TDZ REIL-OMNI
33 148 ft / 45 m 10,666 ft / 3,251 m 307.86° / 329.62° ASPHALT 315 ft / 96 m 177 ft / 54 m PREC-APP CENTERLINE EDGE THRESHOLD TDZ REIL-OMNI

SBEG

Details ICAO SBEG (MAO)
Name Eduardo Gomes Intl
Region Brazil
Timezone America/Manaus (UTC-4.0)
Stats Elevation 264 ft / 80 m (AMSL)
Location -3.038600° -60.049700°
Runways 1
Magnetic Variation 16.295° W

METAR

SBEG 270600Z 00000KT CAVOK 24/23 Q1012

Decode

TAF

TAF SBEG 270411Z 2706/2806 03005KT 8000 FEW020 TN24/2710Z TX32/2718Z BECMG 2711/2714 04010KT BECMG 2715/2717 07010KT SCT020 FEW025TCU PROB40 2719/2722 TS SCT020 FEW025CB BECMG 2722/2724 04005KT FEW020 BECMG 2804/2806 33005KT 7000 TS SCT015 FEW023CB RMK PHC

Decode

Destination Runways

ID Width Length Bearing (true/mag) Surface Threshold Overrun Markings Lighting
11 148 ft / 45 m 8,867 ft / 2,703 m 90.13° / 106.43° ASPHALT 0 ft / 0 m 0 ft / 0 m PREC-APP EDGE THRESHOLD ALSF-I
29 148 ft / 45 m 8,867 ft / 2,703 m 270.13° / 286.42° ASPHALT 0 ft / 0 m 0 ft / 0 m PREC-APP EDGE THRESHOLD

Approach Navaids

Runway Type Ident Frequency Range Bearing (true/mag) Slope Elevation
11 GS IEG 110.30 MHz 10 nm / 19 km 90.13° / 106.43 ° 3.01° 264 ft / 80 m (AMSL)
11 LOC-ILS IEG 110.30 MHz 18 nm / 33 km 90.13° / 106.43 ° - 264 ft / 80 m (AMSL)

Popular Alternatives